Time;durP1;ratioP1;P1;durP2;ratioP2;P2;SDS_P1;SDS_P2;PMS_P1;PMS_P2;Temp;Humidity;BMP_temperature;BMP_pressure;BME280_temperature;BME280_humidity;BME280_pressure;Samples;Min_cycle;Max_cycle;Signal;HPM_P1;HPM_P2
2023/06/29 00:00:59;;;;;;;2.05;1.25;;;;;;;;;;4970607;28;20027;-83
2023/06/29 00:03:25;;;;;;;1.42;0.93;;;;;;;;;;4969943;28;20058;-83
2023/06/29 00:05:55;;;;;;;2.55;1.30;;;;;;;;;;4968476;28;20053;-83
2023/06/29 00:08:21;;;;;;;2.20;1.35;;;;;;;;;;4969396;28;20478;-83
2023/06/29 00:10:47;;;;;;;1.25;1.00;;;;;;;;;;4968928;28;20026;-82
2023/06/29 00:13:13;;;;;;;1.75;1.42;;;;;;;;;;4967898;28;20030;-83
2023/06/29 00:15:39;;;;;;;1.60;1.08;;;;;;;;;;4968772;28;20027;-83
2023/06/29 00:18:05;;;;;;;1.42;1.15;;;;;;;;;;4974952;28;20035;-83
2023/06/29 00:20:31;;;;;;;2.42;1.27;;;;;;;;;;4969641;28;20122;-83
2023/06/29 00:22:59;;;;;;;1.23;1.13;;;;;;;;;;4963768;28;20015;-82
2023/06/29 00:25:25;;;;;;;1.23;1.13;;;;;;;;;;4968405;28;20059;-82
2023/06/29 00:27:51;;;;;;;0.90;0.90;;;;;;;;;;4967933;28;20037;-83
2023/06/29 00:30:17;;;;;;;1.33;1.15;;;;;;;;;;4969604;28;20030;-83
2023/06/29 00:32:44;;;;;;;0.88;0.88;;;;;;;;;;4968939;28;20066;-83
2023/06/29 00:35:13;;;;;;;1.08;0.93;;;;;;;;;;4970433;28;20100;-83
2023/06/29 00:37:39;;;;;;;2.05;1.08;;;;;;;;;;4965256;28;20022;-83
2023/06/29 00:40:06;;;;;;;2.13;1.30;;;;;;;;;;4970140;28;20113;-83
2023/06/29 00:42:32;;;;;;;1.67;1.20;;;;;;;;;;4967700;28;20019;-83
2023/06/29 00:44:58;;;;;;;1.80;1.02;;;;;;;;;;4967350;28;20031;-82
2023/06/29 00:47:24;;;;;;;1.83;1.10;;;;;;;;;;4967089;28;20026;-82
2023/06/29 00:49:50;;;;;;;0.75;0.75;;;;;;;;;;4971072;28;20023;-83
2023/06/29 00:52:16;;;;;;;1.60;1.20;;;;;;;;;;4969849;28;20401;-82
2023/06/29 00:54:43;;;;;;;1.83;1.20;;;;;;;;;;4968290;28;20031;-83
2023/06/29 00:57:10;;;;;;;1.65;1.38;;;;;;;;;;4966391;28;20034;-83
2023/06/29 00:59:36;;;;;;;2.00;1.08;;;;;;;;;;4966501;28;20111;-83
2023/06/29 01:02:02;;;;;;;2.53;1.17;;;;;;;;;;4968716;28;20054;-83
2023/06/29 01:04:28;;;;;;;1.20;1.10;;;;;;;;;;4969123;28;20057;-83
2023/06/29 01:06:58;;;;;;;1.35;0.95;;;;;;;;;;4967088;28;20042;-82
2023/06/29 01:09:25;;;;;;;1.70;1.40;;;;;;;;;;4968587;28;20031;-81
2023/06/29 01:11:51;;;;;;;1.10;1.00;;;;;;;;;;4967328;28;20085;-82
2023/06/29 01:14:18;;;;;;;1.77;1.13;;;;;;;;;;4967691;28;20034;-83
2023/06/29 01:16:45;;;;;;;1.25;1.15;;;;;;;;;;4973927;28;20022;-82
2023/06/29 01:19:18;;;;;;;0.80;0.80;;;;;;;;;;4967167;28;20178;-83
2023/06/29 01:21:54;;;;;;;2.15;1.05;;;;;;;;;;4969477;28;20043;-82
2023/06/29 01:24:23;;;;;;;1.40;1.20;;;;;;;;;;4966421;28;20038;-82
2023/06/29 01:26:49;;;;;;;1.35;1.25;;;;;;;;;;4967379;28;20085;-82
2023/06/29 01:29:24;;;;;;;1.58;1.23;;;;;;;;;;4967659;28;20502;-82
2023/06/29 01:31:53;;;;;;;2.75;1.20;;;;;;;;;;4968966;28;20030;-82
2023/06/29 01:34:19;;;;;;;2.08;1.10;;;;;;;;;;4967173;28;20034;-82
2023/06/29 01:36:47;;;;;;;3.20;1.98;;;;;;;;;;4968001;28;20031;-82
2023/06/29 01:39:17;;;;;;;1.60;1.23;;;;;;;;;;4967678;28;20633;-83
2023/06/29 01:41:44;;;;;;;1.75;1.23;;;;;;;;;;4968189;28;20102;-84
2023/06/29 01:44:12;;;;;;;1.30;1.00;;;;;;;;;;4967550;28;20133;-84
2023/06/29 01:46:39;;;;;;;1.75;1.10;;;;;;;;;;4967581;28;20029;-84
2023/06/29 01:49:05;;;;;;;1.20;1.10;;;;;;;;;;4968434;28;20504;-84
2023/06/29 01:51:31;;;;;;;1.48;1.35;;;;;;;;;;4967875;28;20126;-84
2023/06/29 01:53:58;;;;;;;1.48;1.20;;;;;;;;;;4965699;28;20105;-84
2023/06/29 01:56:24;;;;;;;1.55;1.10;;;;;;;;;;4965801;28;20026;-84
2023/06/29 01:58:50;;;;;;;1.25;1.13;;;;;;;;;;4967784;28;20057;-84
2023/06/29 02:01:16;;;;;;;1.15;1.00;;;;;;;;;;4966685;28;20463;-84
2023/06/29 02:03:42;;;;;;;1.50;1.40;;;;;;;;;;4966725;28;20050;-84
2023/06/29 02:06:08;;;;;;;1.50;1.20;;;;;;;;;;4967253;28;20051;-84
2023/06/29 02:08:35;;;;;;;1.85;1.15;;;;;;;;;;4964269;28;20050;-84
2023/06/29 02:11:01;;;;;;;1.73;1.30;;;;;;;;;;4965803;28;20069;-84
2023/06/29 02:13:27;;;;;;;1.40;1.10;;;;;;;;;;4965782;28;20514;-83
2023/06/29 02:15:53;;;;;;;1.77;1.25;;;;;;;;;;4964449;28;20453;-84
2023/06/29 02:18:19;;;;;;;1.35;1.10;;;;;;;;;;4966362;28;20128;-84
2023/06/29 02:20:45;;;;;;;1.95;1.13;;;;;;;;;;4967691;28;20114;-84
2023/06/29 02:23:11;;;;;;;1.42;1.23;;;;;;;;;;4964760;28;20035;-85
2023/06/29 02:25:37;;;;;;;1.27;1.17;;;;;;;;;;4964123;28;20027;-84
2023/06/29 02:28:03;;;;;;;1.73;1.02;;;;;;;;;;4965574;28;20058;-84
2023/06/29 02:30:29;;;;;;;1.58;1.20;;;;;;;;;;4965300;28;20086;-83
2023/06/29 02:32:55;;;;;;;3.72;1.30;;;;;;;;;;4966815;28;20039;-84
2023/06/29 02:35:21;;;;;;;1.17;1.00;;;;;;;;;;4966806;28;20031;-84
2023/06/29 02:37:47;;;;;;;1.25;1.10;;;;;;;;;;4965906;28;20031;-84
2023/06/29 02:40:13;;;;;;;1.70;1.10;;;;;;;;;;4965744;28;20039;-84
2023/06/29 02:42:39;;;;;;;2.20;1.20;;;;;;;;;;4966205;28;20414;-84
2023/06/29 02:45:06;;;;;;;1.88;1.25;;;;;;;;;;4961786;28;20046;-84
2023/06/29 02:47:37;;;;;;;1.10;1.00;;;;;;;;;;4965606;28;20041;-84
2023/06/29 02:50:03;;;;;;;1.20;1.10;;;;;;;;;;4966676;28;20154;-83
2023/06/29 02:52:29;;;;;;;1.20;1.00;;;;;;;;;;4967469;28;20035;-84
2023/06/29 02:54:55;;;;;;;1.20;1.10;;;;;;;;;;4963272;28;20035;-83
2023/06/29 02:57:21;;;;;;;1.02;0.93;;;;;;;;;;4966940;28;20026;-84
2023/06/29 02:59:47;;;;;;;3.92;1.48;;;;;;;;;;4966782;28;20081;-83
2023/06/29 03:02:13;;;;;;;5.13;1.30;;;;;;;;;;4967356;28;20027;-83
2023/06/29 03:04:47;;;;;;;1.38;0.90;;;;;;;;;;4967397;28;20031;-83
2023/06/29 03:07:28;;;;;;;1.98;1.23;;;;;;;;;;4966670;28;20514;-82
2023/06/29 03:09:54;;;;;;;;;;;;;;;;;;4966146;28;20030;-83
2023/06/29 03:12:22;;;;;;;0.80;0.80;;;;;;;;;;4964897;28;19982;-78
2023/06/29 03:14:48;;;;;;;1.00;0.90;;;;;;;;;;4969855;28;20470;-84
2023/06/29 03:17:14;;;;;;;2.30;1.02;;;;;;;;;;4971195;28;20073;-83
2023/06/29 03:19:40;;;;;;;1.73;1.25;;;;;;;;;;4964661;28;20473;-84
2023/06/29 03:22:06;;;;;;;1.10;1.00;;;;;;;;;;4973227;28;20058;-84
2023/06/29 03:24:32;;;;;;;1.08;0.98;;;;;;;;;;4971834;28;20125;-83
2023/06/29 03:26:58;;;;;;;1.42;1.17;;;;;;;;;;4972404;28;20078;-82
2023/06/29 03:29:24;;;;;;;1.75;1.10;;;;;;;;;;4959802;28;20031;-84
2023/06/29 03:31:50;;;;;;;2.03;1.23;;;;;;;;;;4967701;28;20027;-82
2023/06/29 03:34:16;;;;;;;1.55;1.25;;;;;;;;;;4970005;28;20031;-83
2023/06/29 03:36:42;;;;;;;1.25;0.98;;;;;;;;;;4964235;28;20057;-83
2023/06/29 03:39:08;;;;;;;1.33;1.20;;;;;;;;;;4966700;28;20745;-82
2023/06/29 03:41:34;;;;;;;1.63;1.10;;;;;;;;;;4967757;28;20031;-83
2023/06/29 03:44:00;;;;;;;2.85;1.02;;;;;;;;;;4970883;28;20097;-83
2023/06/29 03:46:26;;;;;;;3.08;1.30;;;;;;;;;;4970563;28;20038;-82
2023/06/29 03:48:52;;;;;;;1.35;1.15;;;;;;;;;;4968810;28;20126;-82
2023/06/29 03:51:18;;;;;;;1.35;1.15;;;;;;;;;;4969764;28;20146;-82
2023/06/29 03:53:44;;;;;;;3.08;1.00;;;;;;;;;;4970601;28;20478;-83
2023/06/29 03:56:10;;;;;;;1.60;1.08;;;;;;;;;;4970247;28;20026;-83
2023/06/29 03:58:36;;;;;;;1.08;1.00;;;;;;;;;;4970356;28;20118;-83
2023/06/29 04:01:02;;;;;;;2.35;1.30;;;;;;;;;;4968230;28;20141;-83
2023/06/29 04:03:28;;;;;;;1.13;0.98;;;;;;;;;;4970692;28;20478;-83
2023/06/29 04:05:54;;;;;;;1.30;1.10;;;;;;;;;;4970410;28;20101;-83
2023/06/29 04:08:20;;;;;;;1.20;1.00;;;;;;;;;;4971520;28;20537;-82
2023/06/29 04:10:46;;;;;;;1.40;1.05;;;;;;;;;;4967314;28;20026;-83
2023/06/29 04:13:18;;;;;;;1.88;1.20;;;;;;;;;;4969836;28;20109;-83
2023/06/29 04:15:44;;;;;;;1.42;1.20;;;;;;;;;;4964648;28;20041;-81
2023/06/29 04:18:10;;;;;;;1.42;1.20;;;;;;;;;;4971368;28;20054;-82
2023/06/29 04:20:36;;;;;;;1.98;1.38;;;;;;;;;;4968565;28;20022;-83
2023/06/29 04:23:02;;;;;;;1.73;1.40;;;;;;;;;;4967472;28;20409;-84
2023/06/29 04:25:34;;;;;;;3.20;1.30;;;;;;;;;;4969884;28;20074;-84
2023/06/29 04:28:00;;;;;;;2.38;1.48;;;;;;;;;;4961280;28;20031;-84
2023/06/29 04:30:26;;;;;;;1.35;1.23;;;;;;;;;;4960421;28;20110;-83
2023/06/29 04:32:52;;;;;;;1.15;0.98;;;;;;;;;;4966634;28;20030;-83
2023/06/29 04:35:18;;;;;;;0.85;0.80;;;;;;;;;;4968739;28;20169;-84
2023/06/29 04:37:44;;;;;;;1.00;1.00;;;;;;;;;;4965889;28;20281;-81
2023/06/29 04:40:14;;;;;;;1.42;1.02;;;;;;;;;;4967145;28;20035;-81
2023/06/29 04:42:47;;;;;;;1.25;1.15;;;;;;;;;;4969860;28;20078;-80
2023/06/29 04:45:17;;;;;;;1.30;1.17;;;;;;;;;;4970662;28;20065;-85
2023/06/29 04:47:44;;;;;;;2.28;1.20;;;;;;;;;;4968577;28;20026;-81
2023/06/29 04:50:10;;;;;;;1.48;1.20;;;;;;;;;;4966812;28;20035;-80
2023/06/29 04:52:37;;;;;;;1.35;1.20;;;;;;;;;;4969006;28;20553;-81
2023/06/29 04:55:04;;;;;;;2.00;1.20;;;;;;;;;;4965304;28;20457;-77
2023/06/29 04:57:30;;;;;;;1.63;0.93;;;;;;;;;;4968112;28;20121;-77
2023/06/29 04:59:56;;;;;;;2.35;1.50;;;;;;;;;;4967035;28;20031;-77
2023/06/29 05:02:22;;;;;;;1.45;1.33;;;;;;;;;;4965543;28;20043;-77
2023/06/29 05:04:49;;;;;;;1.20;1.10;;;;;;;;;;4962263;28;20067;-77
2023/06/29 05:07:15;;;;;;;2.13;1.13;;;;;;;;;;4966845;28;20047;-76
2023/06/29 05:09:41;;;;;;;1.98;1.33;;;;;;;;;;4964377;28;20030;-79
2023/06/29 05:12:08;;;;;;;1.42;0.95;;;;;;;;;;4965214;28;20031;-79
2023/06/29 05:14:34;;;;;;;2.13;0.80;;;;;;;;;;4963629;28;20027;-79
2023/06/29 05:17:00;;;;;;;3.70;1.20;;;;;;;;;;4965592;28;20026;-79
2023/06/29 05:19:26;;;;;;;1.63;1.40;;;;;;;;;;4969460;28;20061;-78
2023/06/29 05:21:55;;;;;;;1.55;1.25;;;;;;;;;;4968674;28;20129;-79
2023/06/29 05:24:22;;;;;;;0.90;0.90;;;;;;;;;;4967856;28;20138;-78
2023/06/29 05:26:48;;;;;;;1.73;1.30;;;;;;;;;;4968151;28;20015;-79
2023/06/29 05:29:14;;;;;;;1.73;1.25;;;;;;;;;;4974186;28;20026;-79
2023/06/29 05:31:40;;;;;;;1.60;1.27;;;;;;;;;;4965375;28;20561;-79
2023/06/29 05:34:06;;;;;;;1.30;1.20;;;;;;;;;;4965746;28;20045;-77
2023/06/29 05:36:32;;;;;;;2.10;1.40;;;;;;;;;;4964848;28;20031;-74
2023/06/29 05:38:58;;;;;;;5.05;1.13;;;;;;;;;;4967373;28;20027;-79
2023/06/29 05:41:24;;;;;;;1.52;1.30;;;;;;;;;;4964279;28;20066;-79
2023/06/29 05:43:50;;;;;;;1.30;1.20;;;;;;;;;;4967654;28;20031;-78
2023/06/29 05:46:16;;;;;;;4.07;1.63;;;;;;;;;;4964223;28;20023;-83
2023/06/29 05:48:42;;;;;;;1.10;1.00;;;;;;;;;;4962534;28;20585;-83
2023/06/29 05:51:08;;;;;;;3.72;1.30;;;;;;;;;;4964407;28;20607;-84
2023/06/29 05:53:34;;;;;;;1.20;1.10;;;;;;;;;;4964823;28;20042;-84
2023/06/29 05:56:00;;;;;;;1.10;1.00;;;;;;;;;;4973348;28;20490;-82
2023/06/29 05:58:26;;;;;;;1.85;1.50;;;;;;;;;;4972434;28;20018;-81
2023/06/29 06:00:52;;;;;;;1.20;1.10;;;;;;;;;;4958515;28;20026;-77
2023/06/29 06:03:19;;;;;;;3.22;1.35;;;;;;;;;;4965890;28;20038;-78
2023/06/29 06:05:45;;;;;;;1.50;1.10;;;;;;;;;;4967359;28;20058;-78
2023/06/29 06:08:11;;;;;;;1.25;1.13;;;;;;;;;;4967645;28;20034;-80
2023/06/29 06:10:38;;;;;;;2.20;1.20;;;;;;;;;;4965294;28;20037;-82
2023/06/29 06:13:06;;;;;;;1.05;0.98;;;;;;;;;;4964820;28;20031;-81
2023/06/29 06:15:32;;;;;;;2.15;1.30;;;;;;;;;;4966558;28;20030;-80
2023/06/29 06:17:58;;;;;;;1.67;1.30;;;;;;;;;;4970338;28;20126;-81
2023/06/29 06:20:24;;;;;;;3.20;1.35;;;;;;;;;;4968998;28;20011;-81
2023/06/29 06:22:52;;;;;;;1.33;1.10;;;;;;;;;;4964789;28;20030;-81
2023/06/29 06:25:20;;;;;;;1.05;1.05;;;;;;;;;;4966031;28;20054;-81
2023/06/29 06:27:45;;;;;;;1.45;1.10;;;;;;;;;;4967052;28;20027;-82
2023/06/29 06:30:12;;;;;;;1.10;0.98;;;;;;;;;;4968171;28;20035;-84
2023/06/29 06:32:39;;;;;;;1.67;1.13;;;;;;;;;;4965440;28;20394;-82
2023/06/29 06:35:07;;;;;;;1.35;1.10;;;;;;;;;;4967893;28;20031;-83
2023/06/29 06:37:33;;;;;;;2.30;1.17;;;;;;;;;;4969560;28;20494;-82
2023/06/29 06:39:59;;;;;;;0.93;0.85;;;;;;;;;;4977550;28;20045;-82
2023/06/29 06:42:25;;;;;;;4.10;1.33;;;;;;;;;;4960520;28;20420;-81
2023/06/29 06:44:57;;;;;;;1.30;1.20;;;;;;;;;;4966299;28;20049;-82
2023/06/29 06:47:23;;;;;;;1.48;1.00;;;;;;;;;;4971565;28;20383;-81
2023/06/29 06:49:49;;;;;;;3.20;1.20;;;;;;;;;;4972507;28;20057;-82
2023/06/29 06:52:15;;;;;;;0.80;0.80;;;;;;;;;;4971583;28;20031;-82
2023/06/29 06:54:41;;;;;;;1.27;1.10;;;;;;;;;;4971261;28;20426;-83
2023/06/29 06:57:07;;;;;;;1.48;1.02;;;;;;;;;;4972917;28;20027;-82
2023/06/29 06:59:33;;;;;;;2.90;1.30;;;;;;;;;;4972349;28;20035;-82
2023/06/29 07:01:59;;;;;;;1.30;1.20;;;;;;;;;;4971923;28;20034;-82
2023/06/29 07:04:25;;;;;;;1.98;1.25;;;;;;;;;;4970068;28;20022;-81
2023/06/29 07:06:51;;;;;;;1.85;1.40;;;;;;;;;;4971654;28;20047;-81
2023/06/29 07:09:17;;;;;;;1.25;1.05;;;;;;;;;;4972337;28;20046;-82
2023/06/29 07:11:43;;;;;;;1.73;1.05;;;;;;;;;;4972061;28;20118;-82
2023/06/29 07:14:09;;;;;;;1.15;1.02;;;;;;;;;;4967686;28;20034;-82
2023/06/29 07:16:35;;;;;;;3.00;1.30;;;;;;;;;;4977981;28;20381;-81
2023/06/29 07:19:04;;;;;;;1.25;0.95;;;;;;;;;;4977293;28;20074;-82
2023/06/29 07:21:31;;;;;;;2.63;1.30;;;;;;;;;;4971937;28;20031;-81
2023/06/29 07:23:57;;;;;;;1.00;0.90;;;;;;;;;;4969168;28;20494;-82
2023/06/29 07:26:23;;;;;;;0.90;0.90;;;;;;;;;;4972046;28;20023;-83
2023/06/29 07:28:49;;;;;;;1.60;1.10;;;;;;;;;;4970810;28;20085;-81
2023/06/29 07:31:15;;;;;;;0.88;0.80;;;;;;;;;;4971066;28;20478;-81
2023/06/29 07:33:42;;;;;;;1.85;1.20;;;;;;;;;;4969679;28;20034;-81
2023/06/29 07:36:08;;;;;;;1.70;1.08;;;;;;;;;;4971397;28;20398;-81
2023/06/29 07:38:34;;;;;;;1.67;1.10;;;;;;;;;;4970303;28;20540;-81
2023/06/29 07:41:03;;;;;;;1.58;1.17;;;;;;;;;;4971024;28;20117;-83
2023/06/29 07:43:29;;;;;;;1.27;1.17;;;;;;;;;;4968686;28;20441;-83
2023/06/29 07:45:55;;;;;;;1.10;1.00;;;;;;;;;;4968760;28;20094;-82
2023/06/29 07:48:21;;;;;;;0.90;0.90;;;;;;;;;;4970842;28;20114;-83
2023/06/29 07:50:46;;;;;;;1.15;0.90;;;;;;;;;;4970297;28;20123;-82
2023/06/29 07:53:12;;;;;;;1.80;1.20;;;;;;;;;;4970593;28;20026;-82
2023/06/29 07:55:38;;;;;;;0.77;0.75;;;;;;;;;;4969593;28;20118;-82
2023/06/29 07:58:31;;;;;;;1.45;1.10;;;;;;;;;;4970842;28;20078;-82
2023/06/29 08:00:57;;;;;;;1.35;0.90;;;;;;;;;;4969593;28;20117;-82
2023/06/29 08:03:23;;;;;;;0.98;0.95;;;;;;;;;;4970062;28;20031;-83
2023/06/29 08:05:52;;;;;;;1.27;1.10;;;;;;;;;;4969236;28;20054;-81
2023/06/29 08:08:18;;;;;;;1.98;1.05;;;;;;;;;;4962878;28;20113;-83
2023/06/29 08:10:44;;;;;;;0.90;0.90;;;;;;;;;;4970855;28;20027;-82
2023/06/29 08:13:10;;;;;;;1.38;0.85;;;;;;;;;;4971501;28;20315;-82
2023/06/29 08:15:36;;;;;;;1.20;1.10;;;;;;;;;;4969990;28;20026;-81
2023/06/29 08:18:02;;;;;;;1.55;1.33;;;;;;;;;;4980280;28;20046;-81
2023/06/29 08:20:28;;;;;;;1.35;1.10;;;;;;;;;;4968020;28;20079;-82
2023/06/29 08:22:54;;;;;;;1.20;1.10;;;;;;;;;;4970747;28;20038;-83
2023/06/29 08:25:24;;;;;;;1.83;1.02;;;;;;;;;;4971201;28;20026;-82
2023/06/29 08:27:50;;;;;;;1.17;1.00;;;;;;;;;;4969128;28;20110;-82
2023/06/29 08:30:16;;;;;;;1.95;1.30;;;;;;;;;;4970755;28;20031;-81
2023/06/29 08:32:43;;;;;;;1.25;0.80;;;;;;;;;;4970859;28;20066;-81
2023/06/29 08:35:09;;;;;;;2.00;1.20;;;;;;;;;;4971004;28;20106;-83
2023/06/29 08:37:35;;;;;;;1.40;0.90;;;;;;;;;;4970914;28;20031;-82
2023/06/29 08:40:03;;;;;;;2.10;1.27;;;;;;;;;;4967638;28;20102;-82
2023/06/29 08:42:32;;;;;;;1.77;1.17;;;;;;;;;;4970170;28;20031;-83
2023/06/29 08:44:58;;;;;;;1.48;1.00;;;;;;;;;;4971493;28;20030;-83
2023/06/29 08:47:24;;;;;;;1.52;1.25;;;;;;;;;;4970524;28;20126;-82
2023/06/29 08:49:54;;;;;;;1.20;1.10;;;;;;;;;;4970081;28;20411;-82
2023/06/29 08:52:22;;;;;;;1.92;1.17;;;;;;;;;;4970015;28;20023;-82
2023/06/29 08:54:49;;;;;;;3.72;0.90;;;;;;;;;;4966989;28;20394;-83
2023/06/29 08:57:15;;;;;;;1.27;1.00;;;;;;;;;;4967121;28;20015;-82
2023/06/29 08:59:41;;;;;;;1.27;1.00;;;;;;;;;;4964532;28;20046;-82
2023/06/29 09:02:08;;;;;;;1.73;1.30;;;;;;;;;;4967674;28;20023;-82
2023/06/29 09:04:34;;;;;;;1.13;1.02;;;;;;;;;;4970429;28;20115;-82
2023/06/29 09:07:03;;;;;;;1.40;1.00;;;;;;;;;;4970341;28;20031;-84
2023/06/29 09:09:29;;;;;;;1.08;0.85;;;;;;;;;;4969313;28;20023;-81
2023/06/29 09:11:55;;;;;;;0.88;0.88;;;;;;;;;;4965599;28;20026;-82
2023/06/29 09:14:23;;;;;;;1.25;1.00;;;;;;;;;;4967639;28;20050;-82
2023/06/29 09:16:50;;;;;;;1.10;0.90;;;;;;;;;;4977981;28;20092;-82
2023/06/29 09:19:17;;;;;;;1.58;0.95;;;;;;;;;;4973746;28;20030;-82
2023/06/29 09:21:45;;;;;;;1.00;0.95;;;;;;;;;;4970052;28;20509;-82
2023/06/29 09:24:13;;;;;;;0.70;0.70;;;;;;;;;;4968051;28;20663;-83
2023/06/29 09:26:39;;;;;;;0.90;0.90;;;;;;;;;;4962439;28;20026;-82
2023/06/29 09:29:05;;;;;;;0.98;0.90;;;;;;;;;;4970204;28;20077;-81
2023/06/29 09:31:35;;;;;;;0.70;0.70;;;;;;;;;;4969790;28;20466;-82
2023/06/29 09:34:20;;;;;;;1.03;0.90;;;;;;;;;;4969768;28;20046;-82
2023/06/29 09:36:46;;;;;;;1.17;0.90;;;;;;;;;;4969745;28;20069;-81
2023/06/29 09:39:12;;;;;;;0.95;0.70;;;;;;;;;;4969598;28;20027;-81
2023/06/29 09:41:57;;;;;;;0.85;0.82;;;;;;;;;;4969956;28;20090;-82
2023/06/29 09:44:24;;;;;;;1.52;1.27;;;;;;;;;;4964545;28;20026;-81
2023/06/29 09:46:51;;;;;;;1.15;1.00;;;;;;;;;;4969219;28;20595;-81
2023/06/29 09:49:18;;;;;;;0.93;0.88;;;;;;;;;;4969006;28;20386;-82
2023/06/29 09:51:44;;;;;;;1.05;0.98;;;;;;;;;;4969898;28;20023;-81
2023/06/29 09:54:14;;;;;;;1.75;0.90;;;;;;;;;;4968591;28;20058;-82
2023/06/29 09:56:40;;;;;;;0.90;0.88;;;;;;;;;;4966948;28;20041;-81
2023/06/29 09:59:10;;;;;;;0.90;0.90;;;;;;;;;;4969657;28;20051;-81
2023/06/29 10:01:36;;;;;;;1.02;0.93;;;;;;;;;;4969239;28;20027;-82
2023/06/29 10:04:04;;;;;;;0.77;0.77;;;;;;;;;;4969692;28;20054;-82
2023/06/29 10:06:33;;;;;;;3.83;0.88;;;;;;;;;;4965558;28;20051;-81
2023/06/29 10:09:00;;;;;;;1.23;0.80;;;;;;;;;;4968212;28;20185;-83
2023/06/29 10:11:29;;;;;;;1.30;1.20;;;;;;;;;;4969083;28;20027;-81
2023/06/29 10:14:00;;;;;;;1.50;1.13;;;;;;;;;;4969663;28;20033;-81
2023/06/29 10:16:26;;;;;;;;;;;;;;;;;;4965072;28;20089;-82
2023/06/29 10:18:54;;;;;;;1.05;1.00;;;;;;;;;;4967992;28;19912;-81
2023/06/29 10:21:21;;;;;;;0.95;0.85;;;;;;;;;;4969018;28;20102;-82
2023/06/29 10:23:47;;;;;;;1.40;0.85;;;;;;;;;;4968563;28;20119;-82
2023/06/29 10:26:13;;;;;;;0.90;0.90;;;;;;;;;;4966556;28;20609;-82
2023/06/29 10:28:39;;;;;;;0.88;0.80;;;;;;;;;;4969372;28;20390;-83
2023/06/29 10:31:05;;;;;;;1.08;0.98;;;;;;;;;;4968614;28;20073;-82
2023/06/29 10:33:31;;;;;;;1.30;1.05;;;;;;;;;;4969482;28;20026;-82
2023/06/29 10:35:58;;;;;;;1.20;1.05;;;;;;;;;;4966634;28;20035;-82
2023/06/29 10:38:36;;;;;;;0.90;0.85;;;;;;;;;;4969245;28;20027;-82
2023/06/29 10:41:06;;;;;;;0.90;0.80;;;;;;;;;;4969448;28;20477;-83
2023/06/29 10:43:51;;;;;;;1.05;0.90;;;;;;;;;;4967797;28;20019;-82
2023/06/29 10:46:18;;;;;;;1.17;1.08;;;;;;;;;;4966091;28;20050;-81
2023/06/29 10:48:59;;;;;;;25.60;1.70;;;;;;;;;;4969238;28;20127;-82
2023/06/29 10:51:25;;;;;;;1.48;1.15;;;;;;;;;;4969448;28;20470;-82
2023/06/29 10:53:51;;;;;;;1.52;0.90;;;;;;;;;;4968578;28;20047;-82
2023/06/29 10:56:29;;;;;;;0.80;0.80;;;;;;;;;;4968276;28;20089;-81
2023/06/29 10:58:55;;;;;;;1.17;1.08;;;;;;;;;;4960796;28;20062;-82
2023/06/29 11:01:21;;;;;;;1.02;0.93;;;;;;;;;;4949686;28;20438;-81
2023/06/29 11:03:47;;;;;;;1.30;1.00;;;;;;;;;;4952036;28;20031;-80
2023/06/29 11:06:13;;;;;;;0.82;0.82;;;;;;;;;;4967737;28;20051;-81
2023/06/29 11:08:39;;;;;;;0.70;0.70;;;;;;;;;;4968262;28;20081;-81
2023/06/29 11:11:15;;;;;;;2.28;1.10;;;;;;;;;;4967890;28;20106;-82
2023/06/29 11:13:41;;;;;;;1.10;1.05;;;;;;;;;;4968926;28;20027;-81
2023/06/29 11:16:07;;;;;;;0.90;0.85;;;;;;;;;;4964964;28;20443;-81
2023/06/29 11:18:33;;;;;;;0.80;0.80;;;;;;;;;;4966708;28;20023;-81
2023/06/29 11:21:02;;;;;;;1.27;1.00;;;;;;;;;;4968719;28;20725;-82
2023/06/29 11:23:28;;;;;;;3.03;1.45;;;;;;;;;;4969077;28;20505;-80
2023/06/29 11:25:59;;;;;;;1.58;0.93;;;;;;;;;;4969048;28;20031;-82
2023/06/29 11:28:25;;;;;;;1.10;0.95;;;;;;;;;;4966511;28;20068;-81
2023/06/29 11:30:53;;;;;;;3.40;0.95;;;;;;;;;;4968024;28;20027;-81
2023/06/29 11:33:21;;;;;;;0.80;0.80;;;;;;;;;;4971137;28;20042;-82
2023/06/29 11:35:47;;;;;;;1.00;0.90;;;;;;;;;;4971807;28;20038;-82
2023/06/29 11:38:13;;;;;;;0.98;0.90;;;;;;;;;;4970359;28;20023;-83
2023/06/29 11:40:39;;;;;;;1.52;1.00;;;;;;;;;;4971779;28;20038;-83
2023/06/29 11:43:05;;;;;;;0.75;0.75;;;;;;;;;;4972549;28;20034;-82
2023/06/29 11:45:33;;;;;;;2.15;0.85;;;;;;;;;;4972111;28;20168;-82
2023/06/29 11:47:58;;;;;;;0.80;0.80;;;;;;;;;;4970195;28;20500;-82
2023/06/29 11:50:25;;;;;;;1.30;1.13;;;;;;;;;;4969076;28;20023;-81
2023/06/29 11:52:51;;;;;;;1.63;1.00;;;;;;;;;;4966663;28;20043;-80
2023/06/29 11:55:17;;;;;;;1.40;1.00;;;;;;;;;;4968575;28;20030;-82
2023/06/29 11:57:44;;;;;;;0.95;0.90;;;;;;;;;;4969379;28;20038;-79
2023/06/29 12:00:12;;;;;;;1.80;0.90;;;;;;;;;;4966999;28;20058;-80
2023/06/29 12:02:40;;;;;;;1.15;1.05;;;;;;;;;;4971544;28;20023;-79
2023/06/29 12:05:07;;;;;;;1.75;1.10;;;;;;;;;;4968365;28;20061;-79
2023/06/29 12:07:43;;;;;;;1.20;1.05;;;;;;;;;;4964249;28;20528;-79
2023/06/29 12:10:10;;;;;;;1.10;1.00;;;;;;;;;;4969929;28;20363;-78
2023/06/29 12:12:37;;;;;;;0.80;0.80;;;;;;;;;;4970277;28;20035;-78
2023/06/29 12:15:16;;;;;;;2.42;1.33;;;;;;;;;;4969763;28;20136;-79
2023/06/29 12:17:42;;;;;;;1.20;1.08;;;;;;;;;;4976407;28;20571;-79
2023/06/29 12:20:15;;;;;;;2.05;1.17;;;;;;;;;;4967630;28;20026;-79
2023/06/29 12:22:42;;;;;;;1.75;1.38;;;;;;;;;;4968102;28;20035;-79
2023/06/29 12:25:15;;;;;;;1.05;0.98;;;;;;;;;;4970371;28;20022;-79
2023/06/29 12:27:41;;;;;;;1.10;1.00;;;;;;;;;;4968390;28;20078;-79
2023/06/29 12:30:08;;;;;;;3.13;1.45;;;;;;;;;;4968889;28;20026;-79
2023/06/29 12:32:34;;;;;;;1.38;1.10;;;;;;;;;;4968644;28;20054;-79
2023/06/29 12:35:00;;;;;;;1.13;1.02;;;;;;;;;;4968946;28;20046;-80
2023/06/29 12:37:26;;;;;;;1.02;0.93;;;;;;;;;;4970573;28;20031;-79
2023/06/29 12:39:54;;;;;;;1.35;1.00;;;;;;;;;;4967382;28;20082;-79
2023/06/29 12:42:20;;;;;;;1.30;1.05;;;;;;;;;;4969397;28;20741;-80
2023/06/29 12:44:46;;;;;;;1.05;0.90;;;;;;;;;;4969973;28;20494;-79
2023/06/29 12:47:12;;;;;;;1.90;0.98;;;;;;;;;;4970272;28;20054;-79
2023/06/29 12:49:38;;;;;;;1.30;1.20;;;;;;;;;;4967497;28;20074;-79
2023/06/29 12:52:04;;;;;;;1.20;1.10;;;;;;;;;;4969229;28;20061;-79
2023/06/29 12:54:31;;;;;;;1.33;1.23;;;;;;;;;;4966322;28;20042;-79
2023/06/29 12:56:57;;;;;;;1.10;1.00;;;;;;;;;;4968874;28;20015;-79
2023/06/29 12:59:23;;;;;;;3.10;1.33;;;;;;;;;;4968394;28;20112;-80
2023/06/29 13:01:49;;;;;;;1.27;1.17;;;;;;;;;;4969454;28;20019;-76
2023/06/29 13:04:15;;;;;;;1.10;1.00;;;;;;;;;;4965503;28;20027;-76
2023/06/29 13:06:41;;;;;;;1.13;1.02;;;;;;;;;;4968147;28;20101;-81
2023/06/29 13:09:07;;;;;;;2.05;1.50;;;;;;;;;;4969658;28;20118;-77
2023/06/29 13:11:34;;;;;;;4.72;1.10;;;;;;;;;;4967531;28;20035;-76
2023/06/29 13:14:00;;;;;;;1.65;1.33;;;;;;;;;;4967054;28;20436;-77
2023/06/29 13:16:28;;;;;;;1.88;1.40;;;;;;;;;;4967954;28;20019;-75
2023/06/29 13:18:54;;;;;;;2.50;2.30;;;;;;;;;;4966862;28;20078;-76
2023/06/29 13:21:20;;;;;;;1.70;1.60;;;;;;;;;;4964318;28;20035;-75
2023/06/29 13:23:46;;;;;;;2.00;1.70;;;;;;;;;;4965909;28;20022;-76
2023/06/29 13:26:12;;;;;;;1.67;1.58;;;;;;;;;;4967546;28;21349;-76
2023/06/29 13:28:38;;;;;;;1.90;1.60;;;;;;;;;;4969314;28;20382;-76
2023/06/29 13:31:07;;;;;;;1.80;1.60;;;;;;;;;;4968784;28;20022;-75
2023/06/29 13:33:33;;;;;;;1.90;1.60;;;;;;;;;;4964064;28;20382;-76
2023/06/29 13:35:59;;;;;;;2.47;1.70;;;;;;;;;;4967192;28;20038;-75
2023/06/29 13:38:25;;;;;;;1.88;1.50;;;;;;;;;;4968840;28;20037;-75
2023/06/29 13:40:51;;;;;;;1.70;1.52;;;;;;;;;;4969332;28;20502;-74
2023/06/29 13:43:17;;;;;;;1.58;1.35;;;;;;;;;;4967016;28;20038;-75
2023/06/29 13:45:43;;;;;;;2.10;1.38;;;;;;;;;;4966391;28;20045;-77
2023/06/29 13:48:08;;;;;;;2.75;1.52;;;;;;;;;;4968922;28;20035;-75
2023/06/29 13:50:34;;;;;;;1.73;1.63;;;;;;;;;;4968085;28;20046;-75
2023/06/29 13:53:00;;;;;;;3.67;2.05;;;;;;;;;;4960885;28;20019;-75
2023/06/29 13:55:28;;;;;;;2.30;1.63;;;;;;;;;;4963042;28;20038;-74
2023/06/29 13:57:54;;;;;;;2.22;1.77;;;;;;;;;;4961010;28;20801;-75
2023/06/29 14:00:21;;;;;;;2.03;1.60;;;;;;;;;;4965084;28;20031;-75
2023/06/29 14:02:47;;;;;;;1.73;1.50;;;;;;;;;;4967922;28;20034;-75
2023/06/29 14:05:13;;;;;;;2.55;1.80;;;;;;;;;;4960495;28;20120;-74
2023/06/29 14:07:39;;;;;;;2.05;1.42;;;;;;;;;;4962865;28;20053;-74
2023/06/29 14:10:05;;;;;;;2.78;1.80;;;;;;;;;;4967200;28;20194;-75
2023/06/29 14:12:31;;;;;;;2.33;1.75;;;;;;;;;;4967688;28;20080;-75
2023/06/29 14:14:57;;;;;;;2.22;1.85;;;;;;;;;;4964105;28;20030;-75
2023/06/29 14:17:26;;;;;;;1.90;1.75;;;;;;;;;;4962924;28;20035;-75
2023/06/29 14:19:55;;;;;;;2.70;1.75;;;;;;;;;;4960417;28;20435;-78
2023/06/29 14:22:30;;;;;;;1.75;1.65;;;;;;;;;;4968142;28;20482;-75
2023/06/29 14:24:56;;;;;;;2.17;1.92;;;;;;;;;;4966752;28;20050;-76
2023/06/29 14:27:23;;;;;;;2.63;1.88;;;;;;;;;;4964339;28;20057;-76
2023/06/29 14:29:48;;;;;;;2.33;1.98;;;;;;;;;;4961941;28;20042;-74
2023/06/29 14:32:14;;;;;;;3.42;1.65;;;;;;;;;;4965898;28;20030;-75
2023/06/29 14:34:40;;;;;;;3.45;1.60;;;;;;;;;;4964344;28;20034;-75
2023/06/29 14:37:07;;;;;;;2.30;2.00;;;;;;;;;;4966928;28;20413;-76
2023/06/29 14:39:33;;;;;;;3.35;1.60;;;;;;;;;;4967809;28;20034;-75
2023/06/29 14:41:59;;;;;;;2.55;1.67;;;;;;;;;;4965844;28;20597;-74